createdAt,value
2016-10-21T00:00:13.393Z,0
2016-10-21T00:05:13.345Z,0
2016-10-21T00:10:12.683Z,0
2016-10-21T00:15:13.270Z,0
2016-10-21T00:20:12.582Z,0
2016-10-21T00:25:12.830Z,0
2016-10-21T00:30:12.772Z,0
2016-10-21T00:35:12.734Z,0
2016-10-21T00:40:12.718Z,0
2016-10-21T00:45:12.920Z,0
2016-10-21T00:50:12.574Z,0
2016-10-21T00:55:12.816Z,0
2016-10-21T01:00:12.454Z,0
2016-10-21T01:05:12.126Z,0
2016-10-21T01:10:12.656Z,0
2016-10-21T01:15:12.292Z,0
2016-10-21T01:20:12.540Z,0
2016-10-21T01:25:12.482Z,0
2016-10-21T01:30:12.140Z,0
2016-10-21T01:35:12.070Z,0
2016-10-21T01:40:12.324Z,0
2016-10-21T01:45:12.268Z,0
2016-10-21T01:50:11.610Z,0
2016-10-21T01:55:12.200Z,0
2016-10-21T02:00:11.808Z,0
2016-10-21T02:05:11.742Z,0
2016-10-21T02:10:11.996Z,0
2016-10-21T02:15:11.336Z,0
2016-10-21T02:20:11.884Z,0
2016-10-21T02:25:11.530Z,0
2016-10-21T02:30:11.782Z,0
2016-10-21T02:35:11.412Z,0
2016-10-21T02:40:11.364Z,0
2016-10-21T02:45:11.610Z,0
2016-10-21T02:50:11.558Z,0
2016-10-21T02:55:11.496Z,0
2016-10-21T03:00:11.440Z,0
2016-10-21T03:05:11.094Z,0
2016-10-21T03:10:11.334Z,0
2016-10-21T03:15:10.982Z,0
2016-10-21T03:20:10.925Z,0
2016-10-21T03:25:11.180Z,0
2016-10-21T03:30:10.809Z,0
2016-10-21T03:35:11.071Z,0
2016-10-21T03:40:11.014Z,0
2016-10-21T03:45:10.642Z,0
2016-10-21T03:50:10.933Z,0
2016-10-21T03:55:10.844Z,0
2016-10-21T04:00:10.197Z,0
2016-10-21T04:05:10.723Z,0
2016-10-21T04:10:10.675Z,0
2016-10-21T04:15:10.049Z,0
2016-10-21T04:20:10.581Z,0
2016-10-21T04:25:10.214Z,0
2016-10-21T04:30:10.140Z,0
2016-10-21T04:35:09.780Z,0
2016-10-21T04:40:10.022Z,0
2016-10-21T04:45:10.279Z,0
2016-10-21T04:50:09.910Z,0
2016-10-21T04:55:10.166Z,0
2016-10-21T05:00:10.109Z,0
2016-10-21T05:05:09.738Z,0
2016-10-21T05:10:09.406Z,4
2016-10-21T05:15:09.633Z,4
2016-10-21T05:20:09.874Z,4
2016-10-21T05:25:09.816Z,4
2016-10-21T05:30:09.459Z,4
2016-10-21T05:35:09.429Z,4
2016-10-21T05:40:09.366Z,4
2016-10-21T05:45:09.295Z,4
2016-10-21T05:50:09.239Z,4
2016-10-21T05:55:09.473Z,4
2016-10-21T06:00:09.423Z,4
2016-10-21T06:05:09.145Z,4
2016-10-21T06:10:08.697Z,0
2016-10-21T06:15:08.953Z,0
2016-10-21T06:20:09.200Z,0
2016-10-21T06:25:09.150Z,0
2016-10-21T06:30:09.093Z,0
2016-10-21T06:35:09.032Z,0
2016-10-21T06:40:08.673Z,0
2016-10-21T06:45:08.637Z,0
2016-10-21T06:50:08.573Z,0
2016-10-21T06:55:08.817Z,0
2016-10-21T07:00:08.770Z,0
2016-10-21T07:05:08.716Z,0
2016-10-21T07:10:08.667Z,0
2016-10-21T07:15:08.605Z,0
2016-10-21T07:20:08.545Z,0
2016-10-21T07:25:08.501Z,12
2016-10-21T07:30:08.137Z,12
2016-10-21T07:35:08.400Z,12
2016-10-21T07:40:08.342Z,16
2016-10-21T07:45:07.979Z,16
2016-10-21T07:50:07.914Z,20
2016-10-21T07:55:08.170Z,24
2016-10-21T08:00:08.118Z,20
2016-10-21T08:05:07.450Z,16
2016-10-21T08:10:08.008Z,20
2016-10-21T08:15:07.654Z,16
2016-10-21T08:20:07.297Z,16
2016-10-21T08:25:07.539Z,24
2016-10-21T08:30:07.810Z,28
2016-10-21T08:35:07.133Z,28
2016-10-21T08:40:07.391Z,16
2016-10-21T08:45:07.649Z,24
2016-10-21T08:50:07.590Z,36
2016-10-21T08:55:07.227Z,44
2016-10-21T09:00:07.483Z,32
2016-10-21T09:05:06.512Z,24
2016-10-21T09:10:06.774Z,24
2016-10-21T09:15:07.322Z,32
2016-10-21T09:20:06.992Z,44
2016-10-21T09:25:07.226Z,44
2016-10-21T09:30:06.605Z,36
2016-10-21T09:35:07.114Z,32
2016-10-21T09:40:06.751Z,36
2016-10-21T09:45:06.714Z,36
2016-10-21T09:50:06.961Z,40
2016-10-21T09:55:06.913Z,40
2016-10-21T10:00:06.864Z,48
2016-10-21T10:05:06.504Z,52
2016-10-21T10:10:06.458Z,52
2016-10-21T10:15:06.085Z,52
2016-10-21T10:20:06.661Z,44
2016-10-21T10:25:05.999Z,48
2016-10-21T10:30:05.963Z,52
2016-10-21T10:35:06.486Z,60
2016-10-21T10:40:06.122Z,64
2016-10-21T10:45:06.065Z,52
2016-10-21T10:50:06.313Z,64
2016-10-21T10:55:05.957Z,76
2016-10-21T11:00:06.214Z,72
2016-10-21T11:05:06.145Z,64
2016-10-21T11:10:05.484Z,64
2016-10-21T11:15:06.037Z,84
2016-10-21T11:20:06.005Z,112
2016-10-21T11:25:05.932Z,84
2016-10-21T11:30:05.584Z,88
2016-10-21T11:35:05.533Z,100
2016-10-21T11:40:05.779Z,84
2016-10-21T11:45:05.147Z,112
2016-10-21T11:50:05.076Z,96
2016-10-21T11:55:05.634Z,80
2016-10-21T12:00:05.269Z,52
2016-10-21T12:05:05.224Z,60
2016-10-21T12:10:05.486Z,40
2016-10-21T12:15:05.122Z,24
2016-10-21T12:20:04.470Z,40
2016-10-21T12:25:05.042Z,36
2016-10-21T12:30:04.970Z,28
2016-10-21T12:35:04.919Z,12
2016-10-21T12:40:04.875Z,16
2016-10-21T12:45:04.520Z,20
2016-10-21T12:50:04.767Z,16
2016-10-21T12:55:04.715Z,12
2016-10-21T13:00:04.967Z,12
2016-10-21T13:05:04.937Z,12
2016-10-21T13:10:04.256Z,12
2016-10-21T13:15:04.821Z,8
2016-10-21T13:20:04.760Z,8
2016-10-21T13:25:04.401Z,16
2016-10-21T13:30:04.357Z,8
2016-10-21T13:35:04.607Z,12
2016-10-21T13:40:04.257Z,12
2016-10-21T13:45:04.514Z,16
2016-10-21T13:50:04.175Z,12
2016-10-21T13:55:04.407Z,16
2016-10-21T14:00:04.392Z,12
2016-10-21T14:05:03.996Z,8
2016-10-21T14:10:04.247Z,8
2016-10-21T14:15:04.212Z,12
2016-10-21T14:20:03.836Z,12
2016-10-21T14:25:04.103Z,8
2016-10-21T14:30:03.143Z,8
2016-10-21T14:35:03.698Z,12
2016-10-21T14:40:03.643Z,12
2016-10-21T14:45:03.894Z,12
2016-10-21T14:50:03.550Z,12
2016-10-21T14:55:03.797Z,8
2016-10-21T15:00:03.755Z,8
2016-10-21T15:05:03.701Z,8
2016-10-21T15:10:03.037Z,8
2016-10-21T15:15:03.320Z,8
2016-10-21T15:20:03.239Z,8
2016-10-21T15:25:03.499Z,8
2016-10-21T15:30:03.133Z,4
2016-10-21T15:35:03.386Z,8
2016-10-21T15:40:03.039Z,4
2016-10-21T15:45:02.985Z,8
2016-10-21T15:50:03.235Z,4
2016-10-21T15:55:02.578Z,8
2016-10-21T16:00:03.138Z,8
2016-10-21T16:05:02.784Z,4
2016-10-21T16:10:02.717Z,4
2016-10-21T16:15:02.980Z,8
2016-10-21T16:20:02.635Z,4
2016-10-21T16:25:02.588Z,4
2016-10-21T16:30:02.861Z,4
2016-10-21T16:35:02.780Z,4
2016-10-21T16:40:02.734Z,4
2016-10-21T16:45:02.680Z,4
2016-10-21T16:50:02.623Z,4
2016-10-21T16:55:02.269Z,4
2016-10-21T17:00:02.524Z,4
2016-10-21T17:05:01.863Z,4
2016-10-21T17:10:02.119Z,4
2016-10-21T17:15:02.105Z,4
2016-10-21T17:20:02.010Z,4
2016-10-21T17:25:02.270Z,4
2016-10-21T17:30:01.930Z,4
2016-10-21T17:35:01.889Z,4
2016-10-21T17:40:01.836Z,4
2016-10-21T17:45:01.778Z,4
2016-10-21T17:50:01.726Z,4
2016-10-21T17:55:01.674Z,4
2016-10-21T18:00:01.626Z,4
2016-10-21T18:05:01.584Z,4
2016-10-21T18:10:01.848Z,4
2016-10-21T18:15:01.498Z,4
2016-10-21T18:20:01.143Z,4
2016-10-21T18:25:01.710Z,4
2016-10-21T18:30:01.363Z,4
2016-10-21T18:35:01.324Z,4
2016-10-21T18:40:01.270Z,4
2016-10-21T18:45:01.230Z,4
2016-10-21T18:50:01.483Z,4
2016-10-21T18:55:01.437Z,4
2016-10-21T19:00:00.780Z,4
2016-10-21T19:05:01.045Z,4
2016-10-21T19:10:01.307Z,4
2016-10-21T19:15:00.955Z,4
2016-10-21T19:20:00.899Z,4
2016-10-21T19:25:00.853Z,4
2016-10-21T19:30:01.102Z,4
2016-10-21T19:35:00.760Z,4
2016-10-21T19:40:00.732Z,4
2016-10-21T19:45:00.970Z,4
2016-10-21T19:50:00.924Z,8
2016-10-21T19:55:00.570Z,8
2016-10-21T20:00:00.219Z,4
2016-10-21T20:05:00.476Z,4
2016-10-21T20:10:00.721Z,4
2016-10-21T20:15:00.368Z,4
2016-10-21T20:20:00.626Z,4
2016-10-21T20:25:00.586Z,4
2016-10-21T20:30:00.222Z,4
2016-10-21T20:35:00.176Z,4
2016-10-21T20:40:00.432Z,4
2016-10-21T20:45:00.088Z,4
2016-10-21T20:50:00.343Z,4
2016-10-21T20:55:00.310Z,4
2016-10-21T20:59:59.952Z,4
2016-10-21T21:04:59.900Z,4
2016-10-21T21:10:00.160Z,4
2016-10-21T21:14:59.805Z,8
2016-10-21T21:19:59.758Z,8
2016-10-21T21:25:00.024Z,8
2016-10-21T21:29:59.363Z,8
2016-10-21T21:34:59.920Z,8
2016-10-21T21:39:59.602Z,8
2016-10-21T21:44:59.530Z,8
2016-10-21T21:49:59.482Z,8
2016-10-21T21:54:59.437Z,8
2016-10-21T21:59:59.689Z,4
2016-10-21T22:04:59.339Z,4
2016-10-21T22:09:59.595Z,4
2016-10-21T22:14:59.238Z,4
2016-10-21T22:19:59.222Z,0
2016-10-21T22:24:59.172Z,0
2016-10-21T22:29:58.788Z,0
2016-10-21T22:34:59.056Z,0
2016-10-21T22:39:58.696Z,0
2016-10-21T22:44:58.940Z,0
2016-10-21T22:49:59.204Z,0
2016-10-21T22:54:59.190Z,0
2016-10-21T22:59:59.098Z,0
2016-10-21T23:04:59.063Z,0
2016-10-21T23:09:58.700Z,0
2016-10-21T23:14:58.646Z,0
2016-10-21T23:19:58.902Z,0
2016-10-21T23:24:58.566Z,0
2016-10-21T23:29:58.798Z,0
2016-10-21T23:34:58.746Z,0
2016-10-21T23:39:58.389Z,0
2016-10-21T23:44:58.642Z,0
2016-10-21T23:49:58.584Z,0
2016-10-21T23:54:58.242Z,0
2016-10-21T23:59:58.183Z,0
